sensor_id;sensor_type;location;lat;lon;timestamp;P1;durP1;ratioP1;P2;durP2;ratioP2
10269;SDS011;5180;50.832;5.390;2022-07-23T00:01:21;39.78;;;37.17;;
10269;SDS011;5180;50.832;5.390;2022-07-23T00:03:48;41.90;;;39.30;;
10269;SDS011;5180;50.832;5.390;2022-07-23T00:06:17;34.70;;;32.50;;
10269;SDS011;5180;50.832;5.390;2022-07-23T00:08:42;28.27;;;26.48;;
10269;SDS011;5180;50.832;5.390;2022-07-23T00:11:08;49.60;;;45.88;;
10269;SDS011;5180;50.832;5.390;2022-07-23T00:13:34;70.53;;;65.78;;
10269;SDS011;5180;50.832;5.390;2022-07-23T00:15:59;42.72;;;39.83;;
10269;SDS011;5180;50.832;5.390;2022-07-23T00:18:25;33.72;;;31.50;;
10269;SDS011;5180;50.832;5.390;2022-07-23T00:20:51;32.88;;;30.73;;
10269;SDS011;5180;50.832;5.390;2022-07-23T00:23:16;66.50;;;61.80;;
10269;SDS011;5180;50.832;5.390;2022-07-23T00:25:42;78.57;;;73.55;;
10269;SDS011;5180;50.832;5.390;2022-07-23T00:28:08;59.70;;;55.95;;
10269;SDS011;5180;50.832;5.390;2022-07-23T00:30:34;51.22;;;47.70;;
10269;SDS011;5180;50.832;5.390;2022-07-23T00:33:00;45.38;;;42.28;;
10269;SDS011;5180;50.832;5.390;2022-07-23T00:35:29;43.83;;;41.13;;
10269;SDS011;5180;50.832;5.390;2022-07-23T00:37:56;47.88;;;44.60;;
10269;SDS011;5180;50.832;5.390;2022-07-23T00:40:23;47.90;;;44.72;;
10269;SDS011;5180;50.832;5.390;2022-07-23T00:42:49;39.65;;;36.90;;
10269;SDS011;5180;50.832;5.390;2022-07-23T00:45:15;44.85;;;42.00;;
10269;SDS011;5180;50.832;5.390;2022-07-23T00:47:41;51.38;;;48.00;;
10269;SDS011;5180;50.832;5.390;2022-07-23T00:50:07;55.00;;;51.42;;
10269;SDS011;5180;50.832;5.390;2022-07-23T00:52:35;57.95;;;54.15;;
10269;SDS011;5180;50.832;5.390;2022-07-23T00:55:03;50.05;;;46.85;;
10269;SDS011;5180;50.832;5.390;2022-07-23T00:57:29;38.65;;;36.15;;
10269;SDS011;5180;50.832;5.390;2022-07-23T00:59:55;36.38;;;34.08;;
10269;SDS011;5180;50.832;5.390;2022-07-23T01:02:22;51.47;;;47.88;;
10269;SDS011;5180;50.832;5.390;2022-07-23T01:04:47;43.72;;;40.67;;
10269;SDS011;5180;50.832;5.390;2022-07-23T01:07:13;34.05;;;31.83;;
10269;SDS011;5180;50.832;5.390;2022-07-23T01:09:39;57.33;;;53.50;;
10269;SDS011;5180;50.832;5.390;2022-07-23T01:12:05;34.53;;;32.03;;
10269;SDS011;5180;50.832;5.390;2022-07-23T01:14:32;39.95;;;37.28;;
10269;SDS011;5180;50.832;5.390;2022-07-23T01:16:58;44.88;;;41.58;;
10269;SDS011;5180;50.832;5.390;2022-07-23T01:19:23;46.03;;;42.88;;
10269;SDS011;5180;50.832;5.390;2022-07-23T01:21:50;45.90;;;42.75;;
10269;SDS011;5180;50.832;5.390;2022-07-23T01:24:16;47.85;;;44.63;;
10269;SDS011;5180;50.832;5.390;2022-07-23T01:26:45;37.45;;;34.88;;
10269;SDS011;5180;50.832;5.390;2022-07-23T01:29:12;31.70;;;29.27;;
10269;SDS011;5180;50.832;5.390;2022-07-23T01:31:38;28.17;;;26.00;;
10269;SDS011;5180;50.832;5.390;2022-07-23T01:34:04;35.50;;;33.10;;
10269;SDS011;5180;50.832;5.390;2022-07-23T01:36:32;47.47;;;43.83;;
10269;SDS011;5180;50.832;5.390;2022-07-23T01:38:58;50.28;;;47.00;;
10269;SDS011;5180;50.832;5.390;2022-07-23T01:41:24;58.83;;;54.45;;
10269;SDS011;5180;50.832;5.390;2022-07-23T01:43:49;60.65;;;56.70;;
10269;SDS011;5180;50.832;5.390;2022-07-23T01:46:15;48.50;;;44.90;;
10269;SDS011;5180;50.832;5.390;2022-07-23T01:48:41;42.72;;;39.97;;
10269;SDS011;5180;50.832;5.390;2022-07-23T01:51:07;47.92;;;44.63;;
10269;SDS011;5180;50.832;5.390;2022-07-23T01:53:33;47.85;;;44.55;;
10269;SDS011;5180;50.832;5.390;2022-07-23T01:55:59;42.85;;;39.88;;
10269;SDS011;5180;50.832;5.390;2022-07-23T01:58:26;41.90;;;39.22;;
10269;SDS011;5180;50.832;5.390;2022-07-23T02:00:52;34.47;;;31.98;;
10269;SDS011;5180;50.832;5.390;2022-07-23T02:03:18;29.25;;;27.30;;
10269;SDS011;5180;50.832;5.390;2022-07-23T02:05:44;32.72;;;30.48;;
10269;SDS011;5180;50.832;5.390;2022-07-23T02:08:10;30.15;;;28.08;;
10269;SDS011;5180;50.832;5.390;2022-07-23T02:10:36;30.08;;;28.02;;
10269;SDS011;5180;50.832;5.390;2022-07-23T02:13:01;30.60;;;28.27;;
10269;SDS011;5180;50.832;5.390;2022-07-23T02:15:27;29.60;;;27.58;;
10269;SDS011;5180;50.832;5.390;2022-07-23T02:17:53;30.17;;;28.23;;
10269;SDS011;5180;50.832;5.390;2022-07-23T02:20:19;30.40;;;28.20;;
10269;SDS011;5180;50.832;5.390;2022-07-23T02:22:45;30.25;;;28.10;;
10269;SDS011;5180;50.832;5.390;2022-07-23T02:25:11;36.47;;;33.75;;
10269;SDS011;5180;50.832;5.390;2022-07-23T02:27:37;36.40;;;33.80;;
10269;SDS011;5180;50.832;5.390;2022-07-23T02:30:02;46.85;;;43.67;;
10269;SDS011;5180;50.832;5.390;2022-07-23T02:32:29;72.93;;;68.03;;
10269;SDS011;5180;50.832;5.390;2022-07-23T02:34:54;58.35;;;54.55;;
10269;SDS011;5180;50.832;5.390;2022-07-23T02:37:20;48.00;;;44.78;;
10269;SDS011;5180;50.832;5.390;2022-07-23T02:39:46;55.00;;;51.03;;
10269;SDS011;5180;50.832;5.390;2022-07-23T02:42:13;53.78;;;49.65;;
10269;SDS011;5180;50.832;5.390;2022-07-23T02:44:39;63.72;;;59.50;;
10269;SDS011;5180;50.832;5.390;2022-07-23T02:47:05;59.38;;;55.33;;
10269;SDS011;5180;50.832;5.390;2022-07-23T02:49:31;54.80;;;50.70;;
10269;SDS011;5180;50.832;5.390;2022-07-23T02:51:56;54.28;;;50.70;;
10269;SDS011;5180;50.832;5.390;2022-07-23T02:54:22;46.85;;;43.75;;
10269;SDS011;5180;50.832;5.390;2022-07-23T02:56:47;32.45;;;30.25;;
10269;SDS011;5180;50.832;5.390;2022-07-23T02:59:15;32.47;;;30.17;;
10269;SDS011;5180;50.832;5.390;2022-07-23T03:01:41;40.90;;;38.20;;
10269;SDS011;5180;50.832;5.390;2022-07-23T03:04:06;45.97;;;42.88;;
10269;SDS011;5180;50.832;5.390;2022-07-23T03:06:32;53.90;;;50.08;;
10269;SDS011;5180;50.832;5.390;2022-07-23T03:08:58;56.75;;;52.97;;
10269;SDS011;5180;50.832;5.390;2022-07-23T03:11:23;66.13;;;61.80;;
10269;SDS011;5180;50.832;5.390;2022-07-23T03:13:49;65.00;;;60.83;;
10269;SDS011;5180;50.832;5.390;2022-07-23T03:16:14;62.50;;;58.67;;
10269;SDS011;5180;50.832;5.390;2022-07-23T03:18:40;74.28;;;69.32;;
10269;SDS011;5180;50.832;5.390;2022-07-23T03:21:06;76.03;;;71.07;;
10269;SDS011;5180;50.832;5.390;2022-07-23T03:23:31;76.78;;;72.00;;
10269;SDS011;5180;50.832;5.390;2022-07-23T03:25:57;75.32;;;70.65;;
10269;SDS011;5180;50.832;5.390;2022-07-23T03:28:22;74.93;;;70.18;;
10269;SDS011;5180;50.832;5.390;2022-07-23T03:30:48;58.63;;;54.63;;
10269;SDS011;5180;50.832;5.390;2022-07-23T03:33:14;52.25;;;48.63;;
10269;SDS011;5180;50.832;5.390;2022-07-23T03:35:42;61.10;;;57.20;;
10269;SDS011;5180;50.832;5.390;2022-07-23T03:38:08;70.55;;;65.97;;
10269;SDS011;5180;50.832;5.390;2022-07-23T03:40:34;76.32;;;71.60;;
10269;SDS011;5180;50.832;5.390;2022-07-23T03:42:59;63.53;;;59.53;;
10269;SDS011;5180;50.832;5.390;2022-07-23T03:45:25;55.75;;;52.17;;
10269;SDS011;5180;50.832;5.390;2022-07-23T03:47:51;59.88;;;56.13;;
10269;SDS011;5180;50.832;5.390;2022-07-23T03:50:16;70.07;;;65.68;;
10269;SDS011;5180;50.832;5.390;2022-07-23T03:52:42;71.55;;;67.05;;
10269;SDS011;5180;50.832;5.390;2022-07-23T03:55:08;61.58;;;57.20;;
10269;SDS011;5180;50.832;5.390;2022-07-23T03:57:34;56.03;;;52.42;;
10269;SDS011;5180;50.832;5.390;2022-07-23T03:59:59;54.13;;;50.63;;
10269;SDS011;5180;50.832;5.390;2022-07-23T04:02:25;60.25;;;56.33;;
10269;SDS011;5180;50.832;5.390;2022-07-23T04:04:51;74.47;;;69.72;;
10269;SDS011;5180;50.832;5.390;2022-07-23T04:07:16;63.47;;;59.22;;
10269;SDS011;5180;50.832;5.390;2022-07-23T04:09:42;55.10;;;51.42;;
10269;SDS011;5180;50.832;5.390;2022-07-23T04:12:08;52.00;;;48.38;;
10269;SDS011;5180;50.832;5.390;2022-07-23T04:14:34;58.50;;;54.60;;
10269;SDS011;5180;50.832;5.390;2022-07-23T04:17:00;62.60;;;58.50;;
10269;SDS011;5180;50.832;5.390;2022-07-23T04:19:26;64.35;;;60.42;;
10269;SDS011;5180;50.832;5.390;2022-07-23T04:21:52;67.47;;;63.13;;
10269;SDS011;5180;50.832;5.390;2022-07-23T04:24:17;69.60;;;64.97;;
10269;SDS011;5180;50.832;5.390;2022-07-23T04:26:44;82.85;;;77.78;;
10269;SDS011;5180;50.832;5.390;2022-07-23T04:29:10;80.82;;;75.97;;
10269;SDS011;5180;50.832;5.390;2022-07-23T04:31:36;86.53;;;81.30;;
10269;SDS011;5180;50.832;5.390;2022-07-23T04:34:01;74.90;;;70.28;;
10269;SDS011;5180;50.832;5.390;2022-07-23T04:36:27;80.93;;;75.93;;
10269;SDS011;5180;50.832;5.390;2022-07-23T04:38:53;71.20;;;66.70;;
10269;SDS011;5180;50.832;5.390;2022-07-23T04:41:19;65.00;;;60.90;;
10269;SDS011;5180;50.832;5.390;2022-07-23T04:43:45;62.60;;;58.65;;
10269;SDS011;5180;50.832;5.390;2022-07-23T04:46:11;55.08;;;51.65;;
10269;SDS011;5180;50.832;5.390;2022-07-23T04:48:36;57.58;;;53.90;;
10269;SDS011;5180;50.832;5.390;2022-07-23T04:51:02;50.70;;;47.40;;
10269;SDS011;5180;50.832;5.390;2022-07-23T04:53:28;41.97;;;39.30;;
10269;SDS011;5180;50.832;5.390;2022-07-23T04:55:54;27.15;;;25.30;;
10269;SDS011;5180;50.832;5.390;2022-07-23T04:58:20;24.33;;;22.52;;
10269;SDS011;5180;50.832;5.390;2022-07-23T05:00:46;21.55;;;19.88;;
10269;SDS011;5180;50.832;5.390;2022-07-23T05:03:12;18.60;;;17.35;;
10269;SDS011;5180;50.832;5.390;2022-07-23T05:05:37;23.80;;;21.90;;
10269;SDS011;5180;50.832;5.390;2022-07-23T05:08:03;37.28;;;34.90;;
10269;SDS011;5180;50.832;5.390;2022-07-23T05:10:29;45.20;;;42.53;;
10269;SDS011;5180;50.832;5.390;2022-07-23T05:12:55;47.60;;;44.35;;
10269;SDS011;5180;50.832;5.390;2022-07-23T05:15:20;47.58;;;44.60;;
10269;SDS011;5180;50.832;5.390;2022-07-23T05:17:46;50.58;;;47.45;;
10269;SDS011;5180;50.832;5.390;2022-07-23T05:20:12;28.80;;;27.00;;
10269;SDS011;5180;50.832;5.390;2022-07-23T05:22:38;33.20;;;30.85;;
10269;SDS011;5180;50.832;5.390;2022-07-23T05:25:04;50.47;;;47.25;;
10269;SDS011;5180;50.832;5.390;2022-07-23T05:27:30;43.03;;;39.92;;
10269;SDS011;5180;50.832;5.390;2022-07-23T05:29:56;44.97;;;41.67;;
10269;SDS011;5180;50.832;5.390;2022-07-23T05:32:21;40.38;;;37.95;;
10269;SDS011;5180;50.832;5.390;2022-07-23T05:34:47;35.67;;;33.45;;
10269;SDS011;5180;50.832;5.390;2022-07-23T05:37:13;27.55;;;25.70;;
10269;SDS011;5180;50.832;5.390;2022-07-23T05:39:38;19.42;;;18.08;;
10269;SDS011;5180;50.832;5.390;2022-07-23T05:42:04;10.48;;;9.68;;
10269;SDS011;5180;50.832;5.390;2022-07-23T05:44:30;9.93;;;9.02;;
10269;SDS011;5180;50.832;5.390;2022-07-23T05:46:55;9.38;;;8.57;;
10269;SDS011;5180;50.832;5.390;2022-07-23T05:49:21;9.80;;;9.00;;
10269;SDS011;5180;50.832;5.390;2022-07-23T05:51:47;6.70;;;6.10;;
10269;SDS011;5180;50.832;5.390;2022-07-23T05:54:12;5.90;;;5.30;;
10269;SDS011;5180;50.832;5.390;2022-07-23T05:56:38;6.32;;;5.82;;
10269;SDS011;5180;50.832;5.390;2022-07-23T05:59:03;6.72;;;6.13;;
10269;SDS011;5180;50.832;5.390;2022-07-23T06:01:29;7.88;;;7.07;;
10269;SDS011;5180;50.832;5.390;2022-07-23T06:03:55;6.55;;;5.85;;
10269;SDS011;5180;50.832;5.390;2022-07-23T06:06:20;6.47;;;5.78;;
10269;SDS011;5180;50.832;5.390;2022-07-23T06:08:46;6.70;;;5.43;;
10269;SDS011;5180;50.832;5.390;2022-07-23T06:11:12;6.47;;;5.53;;
10269;SDS011;5180;50.832;5.390;2022-07-23T06:13:37;7.00;;;5.85;;
10269;SDS011;5180;50.832;5.390;2022-07-23T06:16:03;8.18;;;5.80;;
10269;SDS011;5180;50.832;5.390;2022-07-23T06:18:29;6.68;;;5.97;;
10269;SDS011;5180;50.832;5.390;2022-07-23T06:20:54;7.20;;;6.10;;
10269;SDS011;5180;50.832;5.390;2022-07-23T06:23:20;8.43;;;6.18;;
10269;SDS011;5180;50.832;5.390;2022-07-23T06:25:46;7.70;;;5.75;;
10269;SDS011;5180;50.832;5.390;2022-07-23T06:28:11;6.50;;;5.88;;
10269;SDS011;5180;50.832;5.390;2022-07-23T06:30:37;6.18;;;5.57;;
10269;SDS011;5180;50.832;5.390;2022-07-23T06:33:03;7.95;;;6.20;;
10269;SDS011;5180;50.832;5.390;2022-07-23T06:35:28;7.20;;;5.88;;
10269;SDS011;5180;50.832;5.390;2022-07-23T06:37:54;5.60;;;5.07;;
10269;SDS011;5180;50.832;5.390;2022-07-23T06:40:20;6.70;;;5.70;;
10269;SDS011;5180;50.832;5.390;2022-07-23T06:42:45;6.32;;;5.60;;
10269;SDS011;5180;50.832;5.390;2022-07-23T06:45:11;6.88;;;6.18;;
10269;SDS011;5180;50.832;5.390;2022-07-23T06:47:37;7.35;;;6.20;;
10269;SDS011;5180;50.832;5.390;2022-07-23T06:50:03;6.93;;;5.80;;
10269;SDS011;5180;50.832;5.390;2022-07-23T06:52:29;5.95;;;5.45;;
10269;SDS011;5180;50.832;5.390;2022-07-23T06:54:55;6.30;;;5.63;;
10269;SDS011;5180;50.832;5.390;2022-07-23T06:57:21;6.68;;;5.85;;
10269;SDS011;5180;50.832;5.390;2022-07-23T06:59:46;9.73;;;6.30;;
10269;SDS011;5180;50.832;5.390;2022-07-23T07:02:12;6.72;;;5.68;;
10269;SDS011;5180;50.832;5.390;2022-07-23T07:04:38;6.53;;;5.82;;
10269;SDS011;5180;50.832;5.390;2022-07-23T07:07:04;6.65;;;6.00;;
10269;SDS011;5180;50.832;5.390;2022-07-23T07:09:29;6.93;;;5.32;;
10269;SDS011;5180;50.832;5.390;2022-07-23T07:11:55;10.45;;;6.18;;
10269;SDS011;5180;50.832;5.390;2022-07-23T07:14:21;7.53;;;6.40;;
10269;SDS011;5180;50.832;5.390;2022-07-23T07:16:47;7.20;;;5.90;;
10269;SDS011;5180;50.832;5.390;2022-07-23T07:19:13;7.95;;;6.18;;
10269;SDS011;5180;50.832;5.390;2022-07-23T07:21:38;6.38;;;5.75;;
10269;SDS011;5180;50.832;5.390;2022-07-23T07:24:04;8.27;;;6.30;;
10269;SDS011;5180;50.832;5.390;2022-07-23T07:26:30;8.90;;;6.40;;
10269;SDS011;5180;50.832;5.390;2022-07-23T07:28:56;9.85;;;6.85;;
10269;SDS011;5180;50.832;5.390;2022-07-23T07:31:22;7.85;;;6.40;;
10269;SDS011;5180;50.832;5.390;2022-07-23T07:33:47;7.22;;;6.45;;
10269;SDS011;5180;50.832;5.390;2022-07-23T07:36:13;7.80;;;6.22;;
10269;SDS011;5180;50.832;5.390;2022-07-23T07:38:39;8.52;;;6.38;;
10269;SDS011;5180;50.832;5.390;2022-07-23T07:41:04;7.13;;;6.28;;
10269;SDS011;5180;50.832;5.390;2022-07-23T07:43:30;7.50;;;6.03;;
10269;SDS011;5180;50.832;5.390;2022-07-23T07:45:56;7.28;;;6.50;;
10269;SDS011;5180;50.832;5.390;2022-07-23T07:48:21;10.30;;;6.88;;
10269;SDS011;5180;50.832;5.390;2022-07-23T07:50:47;7.40;;;6.30;;
10269;SDS011;5180;50.832;5.390;2022-07-23T07:53:12;7.75;;;5.90;;
10269;SDS011;5180;50.832;5.390;2022-07-23T07:55:38;8.30;;;5.55;;
10269;SDS011;5180;50.832;5.390;2022-07-23T07:58:04;8.60;;;6.65;;
10269;SDS011;5180;50.832;5.390;2022-07-23T08:00:30;8.10;;;7.10;;
10269;SDS011;5180;50.832;5.390;2022-07-23T08:02:56;9.68;;;6.72;;
10269;SDS011;5180;50.832;5.390;2022-07-23T08:05:22;8.10;;;6.10;;
10269;SDS011;5180;50.832;5.390;2022-07-23T08:07:51;7.47;;;5.70;;
10269;SDS011;5180;50.832;5.390;2022-07-23T08:10:17;7.30;;;5.78;;
10269;SDS011;5180;50.832;5.390;2022-07-23T08:12:48;8.35;;;5.78;;
10269;SDS011;5180;50.832;5.390;2022-07-23T08:15:15;8.32;;;6.30;;
10269;SDS011;5180;50.832;5.390;2022-07-23T08:17:43;7.95;;;5.20;;
10269;SDS011;5180;50.832;5.390;2022-07-23T08:20:10;6.35;;;4.70;;
10269;SDS011;5180;50.832;5.390;2022-07-23T08:22:47;6.85;;;5.18;;
10269;SDS011;5180;50.832;5.390;2022-07-23T08:25:15;6.25;;;5.60;;
10269;SDS011;5180;50.832;5.390;2022-07-23T08:27:41;8.32;;;6.35;;
10269;SDS011;5180;50.832;5.390;2022-07-23T08:30:07;5.68;;;5.13;;
10269;SDS011;5180;50.832;5.390;2022-07-23T08:32:47;7.38;;;5.63;;
10269;SDS011;5180;50.832;5.390;2022-07-23T08:35:29;6.10;;;5.50;;
10269;SDS011;5180;50.832;5.390;2022-07-23T08:38:04;5.57;;;4.78;;
10269;SDS011;5180;50.832;5.390;2022-07-23T08:40:32;5.70;;;4.95;;
10269;SDS011;5180;50.832;5.390;2022-07-23T08:43:01;6.07;;;4.82;;
10269;SDS011;5180;50.832;5.390;2022-07-23T08:45:31;6.70;;;5.43;;
10269;SDS011;5180;50.832;5.390;2022-07-23T08:48:03;7.70;;;5.22;;
10269;SDS011;5180;50.832;5.390;2022-07-23T08:50:35;5.50;;;4.75;;
10269;SDS011;5180;50.832;5.390;2022-07-23T08:53:02;6.32;;;5.55;;
10269;SDS011;5180;50.832;5.390;2022-07-23T08:55:30;7.65;;;5.35;;
10269;SDS011;5180;50.832;5.390;2022-07-23T08:57:56;5.38;;;4.88;;
10269;SDS011;5180;50.832;5.390;2022-07-23T09:00:22;8.93;;;5.00;;
10269;SDS011;5180;50.832;5.390;2022-07-23T09:02:48;6.70;;;4.93;;
10269;SDS011;5180;50.832;5.390;2022-07-23T09:05:15;6.60;;;5.20;;
10269;SDS011;5180;50.832;5.390;2022-07-23T09:10:29;5.55;;;4.40;;
10269;SDS011;5180;50.832;5.390;2022-07-23T09:12:56;5.32;;;4.75;;
10269;SDS011;5180;50.832;5.390;2022-07-23T09:15:22;6.07;;;5.10;;
10269;SDS011;5180;50.832;5.390;2022-07-23T09:17:47;7.35;;;5.20;;
10269;SDS011;5180;50.832;5.390;2022-07-23T09:20:14;6.32;;;4.45;;
10269;SDS011;5180;50.832;5.390;2022-07-23T09:22:45;5.40;;;4.00;;
10269;SDS011;5180;50.832;5.390;2022-07-23T09:25:18;5.75;;;4.70;;
10269;SDS011;5180;50.832;5.390;2022-07-23T09:30:26;8.40;;;4.82;;
10269;SDS011;5180;50.832;5.390;2022-07-23T09:33:07;7.78;;;5.20;;
10269;SDS011;5180;50.832;5.390;2022-07-23T09:38:16;6.10;;;5.05;;
10269;SDS011;5180;50.832;5.390;2022-07-23T09:40:43;6.00;;;5.40;;
10269;SDS011;5180;50.832;5.390;2022-07-23T09:43:10;7.10;;;5.00;;
10269;SDS011;5180;50.832;5.390;2022-07-23T09:45:36;5.90;;;5.03;;
10269;SDS011;5180;50.832;5.390;2022-07-23T09:48:14;8.13;;;5.22;;
10269;SDS011;5180;50.832;5.390;2022-07-23T09:50:41;5.82;;;5.22;;
10269;SDS011;5180;50.832;5.390;2022-07-23T09:53:09;5.15;;;4.47;;
10269;SDS011;5180;50.832;5.390;2022-07-23T09:55:48;5.63;;;4.82;;
10269;SDS011;5180;50.832;5.390;2022-07-23T09:58:14;5.60;;;4.97;;
10269;SDS011;5180;50.832;5.390;2022-07-23T10:00:41;6.07;;;4.95;;
10269;SDS011;5180;50.832;5.390;2022-07-23T10:03:09;6.43;;;4.50;;
10269;SDS011;5180;50.832;5.390;2022-07-23T10:05:38;6.03;;;4.07;;
10269;SDS011;5180;50.832;5.390;2022-07-23T10:08:05;4.93;;;4.45;;
10269;SDS011;5180;50.832;5.390;2022-07-23T10:10:34;5.63;;;4.03;;
10269;SDS011;5180;50.832;5.390;2022-07-23T10:13:02;5.55;;;4.13;;
10269;SDS011;5180;50.832;5.390;2022-07-23T10:15:47;7.55;;;4.15;;
10269;SDS011;5180;50.832;5.390;2022-07-23T10:18:13;5.10;;;3.47;;
10269;SDS011;5180;50.832;5.390;2022-07-23T10:20:39;3.65;;;3.00;;
10269;SDS011;5180;50.832;5.390;2022-07-23T10:25:58;4.65;;;3.58;;
10269;SDS011;5180;50.832;5.390;2022-07-23T10:28:41;3.70;;;3.10;;
10269;SDS011;5180;50.832;5.390;2022-07-23T10:34:04;3.78;;;3.00;;
10269;SDS011;5180;50.832;5.390;2022-07-23T10:36:56;3.70;;;3.00;;
10269;SDS011;5180;50.832;5.390;2022-07-23T10:39:26;3.85;;;3.00;;
10269;SDS011;5180;50.832;5.390;2022-07-23T10:42:11;3.45;;;2.65;;
10269;SDS011;5180;50.832;5.390;2022-07-23T10:44:41;3.47;;;2.78;;
10269;SDS011;5180;50.832;5.390;2022-07-23T10:47:09;2.30;;;2.10;;
10269;SDS011;5180;50.832;5.390;2022-07-23T10:49:41;3.33;;;2.38;;
10269;SDS011;5180;50.832;5.390;2022-07-23T10:54:39;3.78;;;3.20;;
10269;SDS011;5180;50.832;5.390;2022-07-23T10:57:08;3.70;;;2.63;;
10269;SDS011;5180;50.832;5.390;2022-07-23T11:02:42;3.20;;;2.33;;
10269;SDS011;5180;50.832;5.390;2022-07-23T11:05:12;3.88;;;2.75;;
10269;SDS011;5180;50.832;5.390;2022-07-23T11:10:39;3.42;;;1.70;;
10269;SDS011;5180;50.832;5.390;2022-07-23T11:34:43;1.40;;;1.30;;
10269;SDS011;5180;50.832;5.390;2022-07-23T11:37:26;4.88;;;1.60;;
10269;SDS011;5180;50.832;5.390;2022-07-23T11:39:56;3.03;;;1.30;;
10269;SDS011;5180;50.832;5.390;2022-07-23T11:42:23;2.30;;;1.63;;
10269;SDS011;5180;50.832;5.390;2022-07-23T11:44:49;1.90;;;1.40;;
10269;SDS011;5180;50.832;5.390;2022-07-23T11:47:20;1.30;;;1.20;;
10269;SDS011;5180;50.832;5.390;2022-07-23T11:52:19;1.67;;;1.35;;
10269;SDS011;5180;50.832;5.390;2022-07-23T11:54:50;1.88;;;1.60;;
10269;SDS011;5180;50.832;5.390;2022-07-23T11:57:27;1.95;;;1.40;;
10269;SDS011;5180;50.832;5.390;2022-07-23T12:00:00;1.73;;;1.50;;
10269;SDS011;5180;50.832;5.390;2022-07-23T12:02:34;1.90;;;1.52;;
10269;SDS011;5180;50.832;5.390;2022-07-23T12:04:59;1.50;;;1.40;;
10269;SDS011;5180;50.832;5.390;2022-07-23T12:07:26;1.45;;;1.27;;
10269;SDS011;5180;50.832;5.390;2022-07-23T12:09:53;1.35;;;1.25;;
10269;SDS011;5180;50.832;5.390;2022-07-23T12:12:20;1.90;;;1.30;;
10269;SDS011;5180;50.832;5.390;2022-07-23T12:14:54;1.35;;;1.20;;
10269;SDS011;5180;50.832;5.390;2022-07-23T12:17:21;2.13;;;1.38;;
10269;SDS011;5180;50.832;5.390;2022-07-23T12:19:52;2.47;;;1.50;;
10269;SDS011;5180;50.832;5.390;2022-07-23T12:22:19;2.70;;;1.50;;
10269;SDS011;5180;50.832;5.390;2022-07-23T12:25:00;1.90;;;1.52;;
10269;SDS011;5180;50.832;5.390;2022-07-23T12:27:29;1.90;;;1.70;;
10269;SDS011;5180;50.832;5.390;2022-07-23T12:29:55;2.67;;;1.60;;
10269;SDS011;5180;50.832;5.390;2022-07-23T12:32:25;2.15;;;1.90;;
10269;SDS011;5180;50.832;5.390;2022-07-23T12:35:06;2.72;;;2.17;;
10269;SDS011;5180;50.832;5.390;2022-07-23T12:37:35;2.58;;;1.95;;
10269;SDS011;5180;50.832;5.390;2022-07-23T12:43:07;2.75;;;1.70;;
10269;SDS011;5180;50.832;5.390;2022-07-23T12:45:45;2.83;;;1.75;;
10269;SDS011;5180;50.832;5.390;2022-07-23T12:50:59;3.13;;;1.88;;
10269;SDS011;5180;50.832;5.390;2022-07-23T12:53:45;2.58;;;1.77;;
10269;SDS011;5180;50.832;5.390;2022-07-23T13:01:05;3.20;;;2.00;;
10269;SDS011;5180;50.832;5.390;2022-07-23T13:03:34;1.90;;;1.80;;
10269;SDS011;5180;50.832;5.390;2022-07-23T13:06:01;2.88;;;2.00;;
10269;SDS011;5180;50.832;5.390;2022-07-23T13:08:28;1.80;;;1.70;;
10269;SDS011;5180;50.832;5.390;2022-07-23T13:10:55;1.80;;;1.70;;
10269;SDS011;5180;50.832;5.390;2022-07-23T13:13:26;5.22;;;1.70;;
10269;SDS011;5180;50.832;5.390;2022-07-23T13:15:53;2.85;;;2.00;;
10269;SDS011;5180;50.832;5.390;2022-07-23T13:18:20;2.65;;;1.80;;
10269;SDS011;5180;50.832;5.390;2022-07-23T13:20:46;2.30;;;1.90;;
10269;SDS011;5180;50.832;5.390;2022-07-23T13:23:13;2.97;;;2.10;;
10269;SDS011;5180;50.832;5.390;2022-07-23T13:25:39;4.20;;;2.17;;
10269;SDS011;5180;50.832;5.390;2022-07-23T13:28:05;2.90;;;2.10;;
10269;SDS011;5180;50.832;5.390;2022-07-23T13:30:31;4.07;;;2.00;;
10269;SDS011;5180;50.832;5.390;2022-07-23T13:32:57;5.10;;;2.05;;
10269;SDS011;5180;50.832;5.390;2022-07-23T13:35:23;1.80;;;1.70;;
10269;SDS011;5180;50.832;5.390;2022-07-23T13:37:49;2.88;;;1.98;;
10269;SDS011;5180;50.832;5.390;2022-07-23T13:40:15;3.05;;;2.03;;
10269;SDS011;5180;50.832;5.390;2022-07-23T13:42:40;1.95;;;1.73;;
10269;SDS011;5180;50.832;5.390;2022-07-23T13:45:06;2.50;;;1.80;;
10269;SDS011;5180;50.832;5.390;2022-07-23T13:47:33;1.90;;;1.80;;
10269;SDS011;5180;50.832;5.390;2022-07-23T13:49:58;1.63;;;1.52;;
10269;SDS011;5180;50.832;5.390;2022-07-23T13:52:24;1.80;;;1.70;;
10269;SDS011;5180;50.832;5.390;2022-07-23T13:54:50;2.97;;;2.00;;
10269;SDS011;5180;50.832;5.390;2022-07-23T13:57:16;3.30;;;1.92;;
10269;SDS011;5180;50.832;5.390;2022-07-23T13:59:42;2.42;;;1.90;;
10269;SDS011;5180;50.832;5.390;2022-07-23T14:02:08;2.60;;;1.90;;
10269;SDS011;5180;50.832;5.390;2022-07-23T14:04:34;3.08;;;1.80;;
10269;SDS011;5180;50.832;5.390;2022-07-23T14:07:00;1.80;;;1.58;;
10269;SDS011;5180;50.832;5.390;2022-07-23T14:09:26;1.70;;;1.60;;
10269;SDS011;5180;50.832;5.390;2022-07-23T14:11:53;2.38;;;1.80;;
10269;SDS011;5180;50.832;5.390;2022-07-23T14:14:18;2.67;;;1.88;;
10269;SDS011;5180;50.832;5.390;2022-07-23T14:16:44;2.25;;;1.65;;
10269;SDS011;5180;50.832;5.390;2022-07-23T14:19:10;1.65;;;1.52;;
10269;SDS011;5180;50.832;5.390;2022-07-23T14:21:36;1.67;;;1.58;;
10269;SDS011;5180;50.832;5.390;2022-07-23T14:24:02;1.60;;;1.50;;
10269;SDS011;5180;50.832;5.390;2022-07-23T14:26:28;1.83;;;1.50;;
10269;SDS011;5180;50.832;5.390;2022-07-23T14:28:54;1.70;;;1.60;;
10269;SDS011;5180;50.832;5.390;2022-07-23T14:31:20;2.78;;;1.50;;
10269;SDS011;5180;50.832;5.390;2022-07-23T14:33:46;1.45;;;1.35;;
10269;SDS011;5180;50.832;5.390;2022-07-23T14:36:12;1.77;;;1.67;;
10269;SDS011;5180;50.832;5.390;2022-07-23T14:38:38;2.95;;;1.60;;
10269;SDS011;5180;50.832;5.390;2022-07-23T14:41:03;3.45;;;1.70;;
10269;SDS011;5180;50.832;5.390;2022-07-23T14:43:31;1.80;;;1.70;;
10269;SDS011;5180;50.832;5.390;2022-07-23T14:45:57;1.85;;;1.63;;
10269;SDS011;5180;50.832;5.390;2022-07-23T14:48:23;2.70;;;1.60;;
10269;SDS011;5180;50.832;5.390;2022-07-23T14:50:49;1.58;;;1.48;;
10269;SDS011;5180;50.832;5.390;2022-07-23T14:53:15;2.35;;;1.58;;
10269;SDS011;5180;50.832;5.390;2022-07-23T14:55:41;2.38;;;1.65;;
10269;SDS011;5180;50.832;5.390;2022-07-23T14:58:06;2.85;;;1.75;;
10269;SDS011;5180;50.832;5.390;2022-07-23T15:00:32;2.03;;;1.83;;
10269;SDS011;5180;50.832;5.390;2022-07-23T15:02:58;1.85;;;1.70;;
10269;SDS011;5180;50.832;5.390;2022-07-23T15:05:23;1.95;;;1.65;;
10269;SDS011;5180;50.832;5.390;2022-07-23T15:07:49;1.90;;;1.67;;
10269;SDS011;5180;50.832;5.390;2022-07-23T15:10:15;2.03;;;1.70;;
10269;SDS011;5180;50.832;5.390;2022-07-23T15:12:41;2.90;;;1.73;;
10269;SDS011;5180;50.832;5.390;2022-07-23T15:15:07;2.35;;;1.75;;
10269;SDS011;5180;50.832;5.390;2022-07-23T15:17:33;2.58;;;1.83;;
10269;SDS011;5180;50.832;5.390;2022-07-23T15:19:58;3.08;;;1.85;;
10269;SDS011;5180;50.832;5.390;2022-07-23T15:22:24;2.28;;;1.70;;
10269;SDS011;5180;50.832;5.390;2022-07-23T15:24:50;2.13;;;1.92;;
10269;SDS011;5180;50.832;5.390;2022-07-23T15:27:16;2.53;;;1.75;;
10269;SDS011;5180;50.832;5.390;2022-07-23T15:29:43;2.35;;;1.73;;
10269;SDS011;5180;50.832;5.390;2022-07-23T15:32:09;3.28;;;1.80;;
10269;SDS011;5180;50.832;5.390;2022-07-23T15:34:36;2.05;;;1.85;;
10269;SDS011;5180;50.832;5.390;2022-07-23T15:37:02;2.00;;;1.80;;
10269;SDS011;5180;50.832;5.390;2022-07-23T15:39:30;2.50;;;1.88;;
10269;SDS011;5180;50.832;5.390;2022-07-23T15:41:57;1.95;;;1.70;;
10269;SDS011;5180;50.832;5.390;2022-07-23T15:44:24;2.15;;;1.90;;
10269;SDS011;5180;50.832;5.390;2022-07-23T15:46:50;3.40;;;2.10;;